Time;durP1;ratioP1;P1;durP2;ratioP2;P2;SDS_P1;SDS_P2;PMS_P1;PMS_P2;Temp;Humidity;BMP_temperature;BMP_pressure;BME280_temperature;BME280_humidity;BME280_pressure;Samples;Min_cycle;Max_cycle;Signal;HPM_P1;HPM_P2
2023/06/06 00:00:03;;;;;;;;;;;;;;;;;;6245498;22;19931;-90
2023/06/06 00:02:30;;;;;;;;;;;;;;;;;;6219038;23;19911;-94
2023/06/06 00:04:55;;;;;;;;;;;;;;;;;;6218803;23;19903;-92
2023/06/06 00:07:20;;;;;;;;;;;;;;;;;;6245241;23;19915;-93
2023/06/06 00:09:45;;;;;;;;;;;;;;;;;;6218853;23;19974;-92
2023/06/06 00:12:12;;;;;;;;;;;;;;;;;;6245262;23;20273;-93
2023/06/06 00:14:38;;;;;;;;;;;;;;;;;;6218732;23;19911;-93
2023/06/06 00:17:03;;;;;;;;;;;;;;;;;;6245766;23;19903;-92
2023/06/06 00:19:28;;;;;;;;;;;;;;;;;;6245976;22;19908;-93
2023/06/06 00:21:53;;;;;;;;;;;;;;;;;;6218655;23;19904;-94
2023/06/06 00:24:19;;;;;;;;;;;;;;;;;;6218762;23;19914;-92
2023/06/06 00:26:44;;;;;;;;;;;;;;;;;;6245708;23;19965;-94
2023/06/06 00:29:09;;;;;;;;;;;;;;;;;;6218578;23;20330;-91
2023/06/06 00:31:34;;;;;;;;;;;;;;;;;;6219054;23;19904;-91
2023/06/06 00:33:59;;;;;;;;;;;;;;;;;;6218631;23;20238;-92
2023/06/06 00:36:24;;;;;;;;;;;;;;;;;;6218322;23;19903;-92
2023/06/06 00:38:50;;;;;;;;;;;;;;;;;;6245309;22;19915;-92
2023/06/06 00:41:15;;;;;;;;;;;;;;;;;;6218897;23;19965;-94
2023/06/06 00:43:40;;;;;;;;;;;;;;;;;;6218692;23;20322;-93
2023/06/06 00:46:05;;;;;;;;;;;;;;;;;;6218650;23;20330;-93
2023/06/06 00:48:30;;;;;;;;;;;;;;;;;;6245361;22;19908;-91
2023/06/06 00:50:56;;;;;;;;;;;;;;;;;;6218298;23;19904;-93
2023/06/06 00:53:21;;;;;;;;;;;;;;;;;;6224910;23;20212;-92
2023/06/06 00:55:46;;;;;;;;;;;;;;;;;;6245460;23;19935;-92
2023/06/06 00:58:11;;;;;;;;;;;;;;;;;;6244208;23;19911;-92
2023/06/06 01:00:38;;;;;;;;;;;;;;;;;;6243494;22;19903;-92
2023/06/06 01:03:03;;;;;;;;;;;;;;;;;;6243551;23;19990;-93
2023/06/06 01:05:29;;;;;;;;;;;;;;;;;;6243464;23;19935;-91
2023/06/06 01:07:54;;;;;;;;;;;;;;;;;;6243575;23;20302;-92
2023/06/06 01:10:20;;;;;;;;;;;;;;;;;;6243489;22;19956;-92
2023/06/06 01:12:47;;;;;;;;;;;;;;;;;;6244985;22;19942;-92
2023/06/06 01:15:12;;;;;;;;;;;;;;;;;;6245427;22;19904;-91
2023/06/06 01:17:38;;;;;;;;;;;;;;;;;;6243975;23;19911;-91
2023/06/06 01:20:04;;;;;;;;;;;;;;;;;;6243611;22;19939;-89
2023/06/06 01:22:29;;;;;;;;;;;;;;;;;;6243415;23;19990;-91
2023/06/06 01:24:55;;;;;;;;;;;;;;;;;;6243961;23;20401;-91
2023/06/06 01:27:21;;;;;;;;;;;;;;;;;;6244192;23;19911;-90
2023/06/06 01:29:46;;;;;;;;;;;;;;;;;;6243204;22;19930;-92
2023/06/06 01:32:11;;;;;;;;;;;;;;;;;;6243507;23;19986;-93
2023/06/06 01:34:36;;;;;;;;;;;;;;;;;;6246957;23;19915;-93
2023/06/06 01:37:01;;;;;;;;;;;;;;;;;;6246583;23;19907;-93
2023/06/06 01:39:26;;;;;;;;;;;;;;;;;;6245116;22;19904;-91
2023/06/06 01:41:54;;;;;;;;;;;;;;;;;;6246856;23;19903;-92
2023/06/06 01:44:19;;;;;;;;;;;;;;;;;;6245279;23;19931;-91
2023/06/06 01:46:44;;;;;;;;;;;;;;;;;;6246448;22;20242;-91
2023/06/06 01:49:10;;;;;;;;;;;;;;;;;;6246521;22;19912;-91
2023/06/06 01:51:35;;;;;;;;;;;;;;;;;;6246715;23;19937;-91
2023/06/06 01:54:00;;;;;;;;;;;;;;;;;;6246607;23;20237;-92
2023/06/06 01:56:26;;;;;;;;;;;;;;;;;;6247003;23;19948;-91
2023/06/06 01:58:51;;;;;;;;;;;;;;;;;;6247128;22;19908;-90
2023/06/06 02:01:16;;;;;;;;;;;;;;;;;;6219938;23;19912;-91
2023/06/06 02:03:41;;;;;;;;;;;;;;;;;;6219623;23;20038;-91
2023/06/06 02:06:06;;;;;;;;;;;;;;;;;;6219400;23;19903;-92
2023/06/06 02:08:34;;;;;;;;;;;;;;;;;;6219378;22;20107;-92
2023/06/06 02:10:59;;;;;;;;;;;;;;;;;;6219747;23;20266;-92
2023/06/06 02:13:25;;;;;;;;;;;;;;;;;;6220140;23;20269;-92
2023/06/06 02:15:50;;;;;;;;;;;;;;;;;;6246748;23;19954;-91
2023/06/06 02:18:16;;;;;;;;;;;;;;;;;;6246310;23;19900;-91
2023/06/06 02:20:41;;;;;;;;;;;;;;;;;;6219427;23;19910;-91
2023/06/06 02:23:06;;;;;;;;;;;;;;;;;;6219363;23;19986;-92
2023/06/06 02:25:33;;;;;;;;;;;;;;;;;;6246181;23;19911;-92
2023/06/06 02:27:58;;;;;;;;;;;;;;;;;;6246713;23;19998;-93
2023/06/06 02:30:24;;;;;;;;;;;;;;;;;;6246339;22;19935;-91
2023/06/06 02:32:50;;;;;;;;;;;;;;;;;;6247152;23;19903;-92
2023/06/06 02:35:18;;;;;;;;;;;;;;;;;;6219764;23;19904;-91
2023/06/06 02:37:43;;;;;;;;;;;;;;;;;;6246207;23;19907;-91
2023/06/06 02:40:08;;;;;;;;;;;;;;;;;;6219482;23;19910;-93
2023/06/06 02:42:33;;;;;;;;;;;;;;;;;;6246095;23;19904;-92
2023/06/06 02:44:58;;;;;;;;;;;;;;;;;;6246060;23;19947;-90
2023/06/06 02:47:23;;;;;;;;;;;;;;;;;;6246253;23;20315;-91
2023/06/06 02:49:49;;;;;;;;;;;;;;;;;;6246186;22;19916;-92
2023/06/06 02:52:14;;;;;;;;;;;;;;;;;;6219326;23;19950;-90
2023/06/06 02:54:40;;;;;;;;;;;;;;;;;;6241639;23;19919;-91
2023/06/06 02:57:05;;;;;;;;;;;;;;;;;;6246286;22;19903;-93
2023/06/06 02:59:30;;;;;;;;;;;;;;;;;;6244484;22;20279;-93
2023/06/06 03:01:55;;;;;;;;;;;;;;;;;;6246393;23;19903;-92
2023/06/06 03:04:21;;;;;;;;;;;;;;;;;;6244176;23;20380;-92
2023/06/06 03:06:48;;;;;;;;;;;;;;;;;;6245761;22;19918;-90
2023/06/06 03:09:13;;;;;;;;;;;;;;;;;;6245822;22;19907;-91
2023/06/06 03:11:38;;;;;;;;;;;;;;;;;;6244292;23;19957;-91
2023/06/06 03:14:03;;;;;;;;;;;;;;;;;;6244565;23;19939;-93
2023/06/06 03:16:28;;;;;;;;;;;;;;;;;;6245773;23;19904;-91
2023/06/06 03:18:53;;;;;;;;;;;;;;;;;;6245503;22;19903;-93
2023/06/06 03:21:18;;;;;;;;;;;;;;;;;;6244109;23;20234;-92
2023/06/06 03:23:44;;;;;;;;;;;;;;;;;;6245567;23;19910;-92
2023/06/06 03:26:09;;;;;;;;;;;;;;;;;;6244142;23;19914;-91
2023/06/06 03:28:34;;;;;;;;;;;;;;;;;;6245398;22;19915;-90
2023/06/06 03:30:59;;;;;;;;;;;;;;;;;;6243949;23;20112;-92
2023/06/06 03:33:24;;;;;;;;;;;;;;;;;;6245689;23;19904;-93
2023/06/06 03:35:50;;;;;;;;;;;;;;;;;;6245616;23;19903;-90
2023/06/06 03:38:15;;;;;;;;;;;;;;;;;;6244026;23;19917;-93
2023/06/06 03:40:40;;;;;;;;;;;;;;;;;;6243814;22;20327;-91
2023/06/06 03:43:05;;;;;;;;;;;;;;;;;;6245310;23;19910;-92
2023/06/06 03:45:31;;;;;;;;;;;;;;;;;;6243999;23;20319;-91
2023/06/06 03:47:56;;;;;;;;;;;;;;;;;;6243961;23;19918;-92
2023/06/06 03:50:21;;;;;;;;;;;;;;;;;;6245771;22;19904;-93
2023/06/06 03:52:46;;;;;;;;;;;;;;;;;;6245925;22;19903;-92
2023/06/06 03:55:11;;;;;;;;;;;;;;;;;;6245267;23;19939;-93
2023/06/06 03:57:37;;;;;;;;;;;;;;;;;;6245537;23;20429;-91
2023/06/06 04:00:10;;;;;;;;;;;;;;;;;;6218716;23;19904;-91
2023/06/06 04:02:36;;;;;;;;;;;;;;;;;;6218373;23;19904;-91
2023/06/06 04:05:02;;;;;;;;;;;;;;;;;;6218529;23;19904;-91
2023/06/06 04:07:28;;;;;;;;;;;;;;;;;;6245147;23;19911;-91
2023/06/06 04:09:53;;;;;;;;;;;;;;;;;;6218584;23;19961;-91
2023/06/06 04:12:18;;;;;;;;;;;;;;;;;;6245026;23;19919;-90
2023/06/06 04:14:43;;;;;;;;;;;;;;;;;;6218289;23;20266;-91
2023/06/06 04:17:09;;;;;;;;;;;;;;;;;;6245038;23;19904;-91
2023/06/06 04:19:34;;;;;;;;;;;;;;;;;;6245226;22;20242;-92
2023/06/06 04:22:00;;;;;;;;;;;;;;;;;;6245184;23;19908;-90
2023/06/06 04:24:25;;;;;;;;;;;;;;;;;;6245351;23;19943;-91
2023/06/06 04:26:50;;;;;;;;;;;;;;;;;;6245159;23;19917;-89
2023/06/06 04:29:15;;;;;;;;;;;;;;;;;;6244925;22;19907;-91
2023/06/06 04:31:40;;;;;;;;;;;;;;;;;;6245276;23;19907;-91
2023/06/06 04:34:06;;;;;;;;;;;;;;;;;;6245170;23;19904;-91
2023/06/06 04:36:33;;;;;;;;;;;;;;;;;;6245044;23;20330;-91
2023/06/06 04:39:00;;;;;;;;;;;;;;;;;;6244768;22;19904;-90
2023/06/06 04:41:25;;;;;;;;;;;;;;;;;;6218024;23;19907;-91
2023/06/06 04:43:51;;;;;;;;;;;;;;;;;;6218276;23;19900;-90
2023/06/06 04:46:21;;;;;;;;;;;;;;;;;;6244838;23;19911;-91
2023/06/06 04:48:48;;;;;;;;;;;;;;;;;;6245043;22;19904;-92
2023/06/06 04:51:14;;;;;;;;;;;;;;;;;;6218322;23;19988;-91
2023/06/06 04:53:42;;;;;;;;;;;;;;;;;;6244733;23;20273;-90
2023/06/06 04:56:07;;;;;;;;;;;;;;;;;;6245176;23;20203;-91
2023/06/06 04:58:34;;;;;;;;;;;;;;;;;;6244912;22;20275;-91
2023/06/06 05:00:59;;;;;;;;;;;;;;;;;;6244897;23;19935;-90
2023/06/06 05:03:26;;;;;;;;;;;;;;;;;;6244964;23;19904;-92
2023/06/06 05:05:52;;;;;;;;;;;;;;;;;;6218290;23;20377;-91
2023/06/06 05:08:19;;;;;;;;;;;;;;;;;;6219305;22;19915;-90
2023/06/06 05:10:44;;;;;;;;;;;;;;;;;;6220498;23;20274;-92
2023/06/06 05:13:09;;;;;;;;;;;;;;;;;;6220026;23;19907;-91
2023/06/06 05:15:34;;;;;;;;;;;;;;;;;;6219924;23;20199;-92
2023/06/06 05:17:59;;;;;;;;;;;;;;;;;;6246940;23;19903;-92
2023/06/06 05:20:24;;;;;;;;;;;;;;;;;;6219957;23;19950;-92
2023/06/06 05:22:50;;;;;;;;;;;;;;;;;;6246798;23;19964;-91
2023/06/06 05:25:15;;;;;;;;;;;;;;;;;;6247166;23;19928;-91
2023/06/06 05:27:40;;;;;;;;;;;;;;;;;;6219801;23;19918;-91
2023/06/06 05:30:05;;;;;;;;;;;;;;;;;;6246754;22;19903;-91
2023/06/06 05:32:30;;;;;;;;;;;;;;;;;;6219705;23;19937;-90
2023/06/06 05:34:55;;;;;;;;;;;;;;;;;;6219643;23;19931;-91
2023/06/06 05:37:20;;;;;;;;;;;;;;;;;;6219584;23;19908;-90
2023/06/06 05:39:45;;;;;;;;;;;;;;;;;;6219452;23;19907;-92
2023/06/06 05:42:10;;;;;;;;;;;;;;;;;;6219305;23;19982;-90
2023/06/06 05:44:36;;;;;;;;;;;;;;;;;;6219627;23;20429;-91
2023/06/06 05:47:01;;;;;;;;;;;;;;;;;;6219354;23;19908;-91
2023/06/06 05:49:26;;;;;;;;;;;;;;;;;;6246325;22;19903;-91
2023/06/06 05:51:51;;;;;;;;;;;;;;;;;;6219430;23;19918;-89
2023/06/06 05:54:16;;;;;;;;;;;;;;;;;;6236670;23;19919;-92
2023/06/06 05:56:42;;;;;;;;;;;;;;;;;;6245082;23;20235;-90
2023/06/06 05:59:07;;;;;;;;;;;;;;;;;;6246216;22;20307;-91
2023/06/06 06:01:32;;;;;;;;;;;;;;;;;;6246398;23;20407;-92
2023/06/06 06:03:57;;;;;;;;;;;;;;;;;;6246411;23;20230;-89
2023/06/06 06:06:22;;;;;;;;;;;;;;;;;;6246188;22;19908;-92
2023/06/06 06:08:49;;;;;;;;;;;;;;;;;;6246099;22;19904;-92
2023/06/06 06:11:14;;;;;;;;;;;;;;;;;;6246227;22;19911;-91
2023/06/06 06:13:39;;;;;;;;;;;;;;;;;;6244761;23;19899;-91
2023/06/06 06:16:05;;;;;;;;;;;;;;;;;;6246621;23;19903;-91
2023/06/06 06:18:30;;;;;;;;;;;;;;;;;;6245560;22;19995;-91
2023/06/06 06:20:55;;;;;;;;;;;;;;;;;;6246278;23;19939;-92
2023/06/06 06:23:20;;;;;;;;;;;;;;;;;;6246210;23;19907;-91
2023/06/06 06:25:45;;;;;;;;;;;;;;;;;;6246084;23;19911;-91
2023/06/06 06:28:10;;;;;;;;;;;;;;;;;;6246035;23;19916;-92
2023/06/06 06:30:35;;;;;;;;;;;;;;;;;;6244495;22;19903;-93
2023/06/06 06:33:01;;;;;;;;;;;;;;;;;;6246078;23;19918;-92
2023/06/06 06:35:26;;;;;;;;;;;;;;;;;;6246018;22;19943;-92
2023/06/06 06:37:51;;;;;;;;;;;;;;;;;;6246137;23;19903;-91
2023/06/06 06:40:17;;;;;;;;;;;;;;;;;;6244392;22;20352;-91
2023/06/06 06:42:43;;;;;;;;;;;;;;;;;;6246866;22;20427;-91
2023/06/06 06:45:09;;;;;;;;;;;;;;;;;;6247105;22;19904;-91
2023/06/06 06:47:34;;;;;;;;;;;;;;;;;;6244251;23;19951;-91
2023/06/06 06:49:59;;;;;;;;;;;;;;;;;;6246801;22;19996;-91
2023/06/06 06:52:25;;;;;;;;;;;;;;;;;;6246119;22;19904;-92
2023/06/06 06:54:57;;;;;;;;;;;;;;;;;;6245958;22;19947;-91
2023/06/06 06:57:23;;;;;;;;;;;;;;;;;;6245999;23;19954;-91
2023/06/06 06:59:48;;;;;;;;;;;;;;;;;;6218570;23;20270;-91
2023/06/06 07:02:13;;;;;;;;;;;;;;;;;;6218670;23;19957;-92
2023/06/06 07:04:39;;;;;;;;;;;;;;;;;;6218635;23;19907;-90
2023/06/06 07:07:04;;;;;;;;;;;;;;;;;;6245630;23;19912;-93
2023/06/06 07:09:30;;;;;;;;;;;;;;;;;;6245484;22;19908;-93
2023/06/06 07:11:55;;;;;;;;;;;;;;;;;;6245544;23;19911;-93
2023/06/06 07:14:20;;;;;;;;;;;;;;;;;;6245628;23;19903;-92
2023/06/06 07:16:48;;;;;;;;;;;;;;;;;;6213897;23;19914;-92
2023/06/06 07:19:13;;;;;;;;;;;;;;;;;;6241769;22;19974;-92
2023/06/06 07:21:38;;;;;;;;;;;;;;;;;;6242393;23;19938;-92
2023/06/06 07:24:03;;;;;;;;;;;;;;;;;;6242546;23;19907;-92
2023/06/06 07:26:29;;;;;;;;;;;;;;;;;;6243747;23;20327;-92
2023/06/06 07:28:54;;;;;;;;;;;;;;;;;;6243274;22;20242;-92
2023/06/06 07:31:19;;;;;;;;;;;;;;;;;;6216355;23;19994;-91
2023/06/06 07:33:44;;;;;;;;;;;;;;;;;;6242994;23;19910;-91
2023/06/06 07:36:10;;;;;;;;;;;;;;;;;;6243514;23;19907;-92
2023/06/06 07:38:35;;;;;;;;;;;;;;;;;;6216362;22;19950;-93
2023/06/06 07:41:00;;;;;;;;;;;;;;;;;;6216357;23;19903;-92
2023/06/06 07:43:25;;;;;;;;;;;;;;;;;;6216595;23;19903;-93
2023/06/06 07:45:50;;;;;;;;;;;;;;;;;;6216464;23;20314;-94
2023/06/06 07:48:16;;;;;;;;;;;;;;;;;;6242783;23;20317;-93
2023/06/06 07:50:41;;;;;;;;;;;;;;;;;;6216428;23;20319;-91
2023/06/06 07:53:06;;;;;;;;;;;;;;;;;;6218925;23;19915;-93
2023/06/06 07:55:31;;;;;;;;;;;;;;;;;;6241997;23;20231;-92
2023/06/06 07:57:57;;;;;;;;;;;;;;;;;;6242998;23;19908;-92
2023/06/06 08:00:22;;;;;;;;;;;;;;;;;;6241268;22;19904;-93
2023/06/06 08:02:47;;;;;;;;;;;;;;;;;;6242427;23;20364;-93
2023/06/06 08:05:12;;;;;;;;;;;;;;;;;;6242791;23;19942;-96
2023/06/06 08:07:40;;;;;;;;;;;;;;;;;;6242199;23;20369;-94
2023/06/06 08:10:08;;;;;;;;;;;;;;;;;;6243582;22;19935;-94
2023/06/06 08:12:34;;;;;;;;;;;;;;;;;;6243567;23;19935;-94
2023/06/06 08:14:59;;;;;;;;;;;;;;;;;;6243066;23;19931;-92
2023/06/06 08:17:24;;;;;;;;;;;;;;;;;;6243053;23;19930;-93
2023/06/06 08:19:49;;;;;;;;;;;;;;;;;;6244410;22;20323;-93
2023/06/06 08:22:15;;;;;;;;;;;;;;;;;;6243051;23;20326;-92
2023/06/06 08:24:41;;;;;;;;;;;;;;;;;;6243779;23;20326;-93
2023/06/06 08:27:06;;;;;;;;;;;;;;;;;;6242518;23;20485;-94
2023/06/06 08:29:31;;;;;;;;;;;;;;;;;;6242721;22;19935;-94
2023/06/06 08:31:56;;;;;;;;;;;;;;;;;;6244566;23;19904;-94
2023/06/06 08:34:22;;;;;;;;;;;;;;;;;;6244965;23;19904;-94
2023/06/06 08:36:48;;;;;;;;;;;;;;;;;;6242713;23;19911;-94
2023/06/06 08:39:13;;;;;;;;;;;;;;;;;;6242645;22;19913;-94
2023/06/06 08:41:38;;;;;;;;;;;;;;;;;;6243250;23;19904;-94
2023/06/06 08:44:04;;;;;;;;;;;;;;;;;;6243229;23;19903;-94
2023/06/06 08:46:29;;;;;;;;;;;;;;;;;;6243227;23;20161;-93
2023/06/06 08:48:54;;;;;;;;;;;;;;;;;;6242933;22;19908;-93
2023/06/06 08:51:19;;;;;;;;;;;;;;;;;;6242672;23;19957;-94
2023/06/06 08:53:44;;;;;;;;;;;;;;;;;;6243293;23;19911;-94
2023/06/06 08:56:09;;;;;;;;;;;;;;;;;;6243106;23;19929;-93
2023/06/06 08:58:35;;;;;;;;;;;;;;;;;;6242669;22;20350;-93
2023/06/06 09:01:00;;;;;;;;;;;;;;;;;;6242609;23;20315;-93
2023/06/06 09:03:25;;;;;;;;;;;;;;;;;;6243107;23;19910;-93
2023/06/06 09:05:51;;;;;;;;;;;;;;;;;;6243119;23;19904;-93
2023/06/06 09:08:16;;;;;;;;;;;;;;;;;;6242446;23;19957;-94
2023/06/06 09:10:41;;;;;;;;;;;;;;;;;;6242897;22;20234;-94
2023/06/06 09:13:07;;;;;;;;;;;;;;;;;;6243497;23;20239;-93
2023/06/06 09:15:33;;;;;;;;;;;;;;;;;;6242653;23;19903;-92
2023/06/06 09:17:58;;;;;;;;;;;;;;;;;;6242387;23;20157;-95
2023/06/06 09:20:26;;;;;;;;;;;;;;;;;;6242794;22;19910;-94
2023/06/06 09:22:51;;;;;;;;;;;;;;;;;;6243282;23;19903;-94
2023/06/06 09:25:17;;;;;;;;;;;;;;;;;;6242274;23;20307;-95
2023/06/06 09:27:42;;;;;;;;;;;;;;;;;;6243376;23;19912;-94
2023/06/06 09:30:07;;;;;;;;;;;;;;;;;;6242940;22;19904;-94
2023/06/06 09:32:32;;;;;;;;;;;;;;;;;;6241792;23;19911;-95
2023/06/06 09:34:57;;;;;;;;;;;;;;;;;;6242464;23;19904;-93
2023/06/06 09:37:23;;;;;;;;;;;;;;;;;;6243372;23;19986;-94
2023/06/06 09:39:48;;;;;;;;;;;;;;;;;;6244135;22;20026;-95
2023/06/06 09:42:13;;;;;;;;;;;;;;;;;;6243723;23;19907;-94
2023/06/06 09:44:38;;;;;;;;;;;;;;;;;;6243267;23;19986;-94
2023/06/06 09:47:03;;;;;;;;;;;;;;;;;;6243343;23;19912;-94
2023/06/06 09:49:28;;;;;;;;;;;;;;;;;;6244049;22;20281;-94
2023/06/06 09:51:53;;;;;;;;;;;;;;;;;;6243557;23;19969;-94
2023/06/06 09:54:18;;;;;;;;;;;;;;;;;;6246807;23;19915;-93
2023/06/06 09:56:44;;;;;;;;;;;;;;;;;;6245525;23;19904;-94
2023/06/06 09:59:09;;;;;;;;;;;;;;;;;;6245536;22;20177;-94
2023/06/06 10:01:34;;;;;;;;;;;;;;;;;;6245251;23;19903;-95
2023/06/06 10:04:00;;;;;;;;;;;;;;;;;;6245365;23;19912;-94
2023/06/06 10:06:33;;;;;;;;;;;;;;;;;;6245327;23;20185;-95
2023/06/06 10:08:58;;;;;;;;;;;;;;;;;;6245572;22;20327;-94
2023/06/06 10:11:24;;;;;;;;;;;;;;;;;;6245330;23;20273;-94
2023/06/06 10:13:50;;;;;;;;;;;;;;;;;;6245371;23;19942;-95
2023/06/06 10:16:15;;;;;;;;;;;;;;;;;;6245121;23;19935;-94
2023/06/06 10:18:41;;;;;;;;;;;;;;;;;;6242987;22;19990;-94
2023/06/06 10:21:06;;;;;;;;;;;;;;;;;;6243194;23;19986;-94
2023/06/06 10:23:31;;;;;;;;;;;;;;;;;;6243712;23;19986;-92
2023/06/06 10:25:56;;;;;;;;;;;;;;;;;;6242852;23;19931;-94
2023/06/06 10:28:21;;;;;;;;;;;;;;;;;;6239873;22;20223;-91
2023/06/06 10:30:46;;;;;;;;;;;;;;;;;;6242978;23;19904;-94
2023/06/06 10:33:12;;;;;;;;;;;;;;;;;;6242009;23;19926;-91
2023/06/06 10:35:37;;;;;;;;;;;;;;;;;;6242115;23;19904;-91
2023/06/06 10:38:02;;;;;;;;;;;;;;;;;;6242402;23;19936;-92
2023/06/06 10:40:28;;;;;;;;;;;;;;;;;;6244144;22;19975;-93
2023/06/06 10:42:53;;;;;;;;;;;;;;;;;;6243258;23;20215;-92
2023/06/06 10:45:18;;;;;;;;;;;;;;;;;;6242893;23;19908;-92
2023/06/06 10:47:44;;;;;;;;;;;;;;;;;;6242091;23;19916;-92
2023/06/06 10:50:12;;;;;;;;;;;;;;;;;;6240197;22;19938;-93
2023/06/06 10:52:38;;;;;;;;;;;;;;;;;;6239951;23;19972;-93
2023/06/06 10:55:03;;;;;;;;;;;;;;;;;;6242269;23;19923;-93
2023/06/06 10:57:28;;;;;;;;;;;;;;;;;;6215657;23;19966;-94
2023/06/06 10:59:53;;;;;;;;;;;;;;;;;;6216417;23;19914;-93
2023/06/06 11:02:18;;;;;;;;;;;;;;;;;;6215752;23;19949;-91
2023/06/06 11:04:43;;;;;;;;;;;;;;;;;;6216340;23;19907;-94
2023/06/06 11:07:08;;;;;;;;;;;;;;;;;;6216503;23;19911;-92
2023/06/06 11:09:33;;;;;;;;;;;;;;;;;;6217814;23;19954;-93
2023/06/06 11:11:59;;;;;;;;;;;;;;;;;;6219029;23;19950;-95
2023/06/06 11:14:24;;;;;;;;;;;;;;;;;;6217317;23;20244;-94
2023/06/06 11:16:49;;;;;;;;;;;;;;;;;;6217624;23;19908;-93
2023/06/06 11:19:19;;;;;;;;;;;;;;;;;;6217328;23;19908;-94
2023/06/06 11:21:45;;;;;;;;;;;;;;;;;;6243982;23;19907;-94
2023/06/06 11:24:10;;;;;;;;;;;;;;;;;;6218460;23;19934;-94
2023/06/06 11:26:35;;;;;;;;;;;;;;;;;;6215261;23;19911;-93
2023/06/06 11:29:01;;;;;;;;;;;;;;;;;;6216460;23;19915;-94
2023/06/06 11:31:26;;;;;;;;;;;;;;;;;;6214685;23;19942;-94
2023/06/06 11:33:51;;;;;;;;;;;;;;;;;;6216469;23;20271;-93
2023/06/06 11:36:16;;;;;;;;;;;;;;;;;;6216145;23;19903;-94
2023/06/06 11:38:45;;;;;;;;;;;;;;;;;;6216588;23;19903;-95
2023/06/06 11:41:10;;;;;;;;;;;;;;;;;;6216863;23;19908;-95
2023/06/06 11:43:35;;;;;;;;;;;;;;;;;;6216742;23;19915;-94
2023/06/06 11:46:00;;;;;;;;;;;;;;;;;;6216917;23;20685;-94
2023/06/06 11:48:26;;;;;;;;;;;;;;;;;;6216514;22;19911;-95
2023/06/06 11:50:51;;;;;;;;;;;;;;;;;;6216152;23;19961;-93
2023/06/06 11:53:16;;;;;;;;;;;;;;;;;;6220754;23;19911;-95
2023/06/06 11:55:41;;;;;;;;;;;;;;;;;;6242017;23;19912;-95
2023/06/06 11:58:07;;;;;;;;;;;;;;;;;;6241186;23;19930;-94
2023/06/06 12:00:33;;;;;;;;;;;;;;;;;;6241584;22;20315;-95
2023/06/06 12:02:59;;;;;;;;;;;;;;;;;;6241753;23;19939;-94
2023/06/06 12:05:25;;;;;;;;;;;;;;;;;;6241346;23;19911;-94
2023/06/06 12:07:50;;;;;;;;;;;;;;;;;;6241430;23;19912;-95
2023/06/06 12:10:16;;;;;;;;;;;;;;;;;;6242040;22;20270;-93
2023/06/06 12:12:41;;;;;;;;;;;;;;;;;;6241766;23;19907;-93
2023/06/06 12:15:06;;;;;;;;;;;;;;;;;;6240898;23;19994;-93
2023/06/06 12:17:31;;;;;;;;;;;;;;;;;;6240445;23;19951;-91
2023/06/06 12:19:57;;;;;;;;;;;;;;;;;;6242290;22;19958;-93
2023/06/06 12:22:22;;;;;;;;;;;;;;;;;;6241723;23;19904;-92
2023/06/06 12:24:47;;;;;;;;;;;;;;;;;;6243518;23;19945;-93
2023/06/06 12:27:16;;;;;;;;;;;;;;;;;;6244081;23;19907;-94
2023/06/06 12:29:41;;;;;;;;;;;;;;;;;;6243869;22;19982;-92
2023/06/06 12:32:07;;;;;;;;;;;;;;;;;;6245374;23;20326;-95
2023/06/06 12:34:32;;;;;;;;;;;;;;;;;;6243175;23;19910;-93
2023/06/06 12:36:57;;;;;;;;;;;;;;;;;;6241802;23;20314;-93
2023/06/06 12:39:23;;;;;;;;;;;;;;;;;;6242593;22;19904;-93
2023/06/06 12:41:48;;;;;;;;;;;;;;;;;;6242334;23;19903;-93
2023/06/06 12:44:15;;;;;;;;;;;;;;;;;;6243536;23;20018;-93
2023/06/06 12:46:40;;;;;;;;;;;;;;;;;;6239575;23;20378;-93
2023/06/06 12:49:05;;;;;;;;;;;;;;;;;;6238982;22;19953;-94
2023/06/06 12:51:31;;;;;;;;;;;;;;;;;;6242840;23;20359;-93
2023/06/06 12:53:56;;;;;;;;;;;;;;;;;;6243353;23;19977;-93
2023/06/06 12:56:21;;;;;;;;;;;;;;;;;;6237123;23;19915;-94
2023/06/06 12:58:47;;;;;;;;;;;;;;;;;;6239628;22;19908;-92
2023/06/06 13:01:12;;;;;;;;;;;;;;;;;;6240400;23;20329;-95
2023/06/06 13:03:37;;;;;;;;;;;;;;;;;;6241099;23;19903;-93
2023/06/06 13:06:02;;;;;;;;;;;;;;;;;;6240380;23;20393;-94
2023/06/06 13:08:27;;;;;;;;;;;;;;;;;;6240888;22;19962;-93
2023/06/06 13:10:52;;;;;;;;;;;;;;;;;;6241761;23;19904;-94
2023/06/06 13:13:17;;;;;;;;;;;;;;;;;;6241836;23;19908;-93
2023/06/06 13:15:42;;;;;;;;;;;;;;;;;;6240281;23;20311;-95
2023/06/06 13:18:08;;;;;;;;;;;;;;;;;;6241322;23;20307;-93
2023/06/06 13:20:33;;;;;;;;;;;;;;;;;;6240366;22;19908;-92
2023/06/06 13:22:58;;;;;;;;;;;;;;;;;;6241132;23;19904;-93
2023/06/06 13:25:23;;;;;;;;;;;;;;;;;;6241404;23;19917;-93
2023/06/06 13:27:48;;;;;;;;;;;;;;;;;;6241680;23;19934;-92
2023/06/06 13:30:14;;;;;;;;;;;;;;;;;;6242776;22;19912;-93
2023/06/06 13:32:39;;;;;;;;;;;;;;;;;;6242497;23;19904;-94
2023/06/06 13:35:04;;;;;;;;;;;;;;;;;;6242090;23;19923;-94
2023/06/06 13:37:29;;;;;;;;;;;;;;;;;;6240728;23;20001;-95
2023/06/06 13:39:55;;;;;;;;;;;;;;;;;;6242073;22;19904;-94
2023/06/06 13:42:20;;;;;;;;;;;;;;;;;;6241587;23;20069;-94
2023/06/06 13:44:45;;;;;;;;;;;;;;;;;;6241815;23;20319;-96
2023/06/06 13:47:10;;;;;;;;;;;;;;;;;;6241605;23;19916;-94
2023/06/06 13:49:38;;;;;;;;;;;;;;;;;;6240066;22;19943;-94
2023/06/06 13:52:03;;;;;;;;;;;;;;;;;;6256812;22;19930;-95
2023/06/06 13:54:28;;;;;;;;;;;;;;;;;;6291084;22;20311;-96
2023/06/06 13:56:54;;;;;;;;;;;;;;;;;;6286839;22;19918;-91
2023/06/06 13:59:20;;;;;;;;;;;;;;;;;;6292642;22;19923;-96
2023/06/06 14:01:50;;;;;;;;;;;;;;;;;;6292246;22;19888;-95
2023/06/06 14:04:16;;;;;;;;;;;;;;;;;;6285476;22;19930;-95
2023/06/06 14:09:18;;;;;;;;;;;;;;;;;;6284946;22;19927;-96
2023/06/06 14:11:44;;;;;;;;;;;;;;;;;;6285992;22;19911;-96
2023/06/06 14:14:09;;;;;;;;;;;;;;;;;;6297642;22;19908;-96
2023/06/06 14:16:34;;;;;;;;;;;;;;;;;;6296371;22;19891;-96
2023/06/06 14:18:59;;;;;;;;;;;;;;;;;;6259752;22;19914;-95
2023/06/06 14:21:46;;;;;;;;;;;;;;;;;;6286087;22;19947;-95
2023/06/06 14:24:11;;;;;;;;;;;;;;;;;;6266136;22;19911;-96
2023/06/06 14:26:36;;;;;;;;;;;;;;;;;;6292032;22;19891;-96
2023/06/06 14:29:01;;;;;;;;;;;;;;;;;;6258782;22;20412;-94
2023/06/06 14:31:26;;;;;;;;;;;;;;;;;;6286125;22;19910;-95
2023/06/06 14:33:52;;;;;;;;;;;;;;;;;;6292630;22;19904;-96
2023/06/06 14:36:18;;;;;;;;;;;;;;;;;;6285480;22;19959;-94
2023/06/06 14:38:43;;;;;;;;;;;;;;;;;;6222134;23;19919;-96
2023/06/06 14:41:08;;;;;;;;;;;;;;;;;;6244954;23;19908;-96
2023/06/06 14:43:33;;;;;;;;;;;;;;;;;;6245398;23;19907;-93
2023/06/06 14:45:58;;;;;;;;;;;;;;;;;;6245250;23;20064;-95
2023/06/06 14:48:23;;;;;;;;;;;;;;;;;;6244547;22;19961;-94
2023/06/06 14:50:48;;;;;;;;;;;;;;;;;;6217505;23;19938;-95
2023/06/06 14:53:13;;;;;;;;;;;;;;;;;;6217992;23;20297;-95
2023/06/06 14:55:39;;;;;;;;;;;;;;;;;;6244588;23;19904;-94
2023/06/06 14:58:04;;;;;;;;;;;;;;;;;;6244025;23;20156;-95
2023/06/06 15:00:29;;;;;;;;;;;;;;;;;;6243841;22;19974;-95
2023/06/06 15:02:55;;;;;;;;;;;;;;;;;;6244525;23;19904;-93
2023/06/06 15:05:20;;;;;;;;;;;;;;;;;;6220709;23;20422;-94
2023/06/06 15:10:20;;;;;;;;;;;;;;;;;;6278399;22;20262;-96
2023/06/06 15:12:45;;;;;;;;;;;;;;;;;;6289029;22;19904;-96
2023/06/06 15:15:10;;;;;;;;;;;;;;;;;;6293812;22;19930;-94
2023/06/06 15:17:35;;;;;;;;;;;;;;;;;;6252131;22;19904;-95
2023/06/06 15:20:00;;;;;;;;;;;;;;;;;;6279053;22;19904;-96
2023/06/06 15:22:26;;;;;;;;;;;;;;;;;;6254293;22;19914;-94
2023/06/06 15:24:51;;;;;;;;;;;;;;;;;;6295957;22;19899;-96
2023/06/06 15:29:53;;;;;;;;;;;;;;;;;;6235720;22;19903;-96
2023/06/06 15:32:24;;;;;;;;;;;;;;;;;;6272497;22;19934;-95
2023/06/06 15:42:36;;;;;;;;;;;;;;;;;;6220996;22;19935;-96
2023/06/06 15:45:02;;;;;;;;;;;;;;;;;;6236620;23;19927;-96
2023/06/06 15:47:28;;;;;;;;;;;;;;;;;;6256233;23;20006;-85
2023/06/06 15:49:53;;;;;;;;;;;;;;;;;;6215620;23;20313;-76
2023/06/06 15:52:18;;;;;;;;;;;;;;;;;;6241292;23;19982;-76
2023/06/06 15:54:43;;;;;;;;;;;;;;;;;;6242765;23;19953;-77
2023/06/06 15:57:08;;;;;;;;;;;;;;;;;;6242568;23;19903;-77
2023/06/06 15:59:33;;;;;;;;;;;;;;;;;;6242010;22;19908;-76
2023/06/06 16:01:58;;;;;;;;;;;;;;;;;;6241347;23;19908;-76
2023/06/06 16:04:25;;;;;;;;;;;;;;;;;;6242845;23;19907;-77
2023/06/06 16:06:50;;;;;;;;;;;;;;;;;;6241950;23;19912;-77
2023/06/06 16:09:16;;;;;;;;;;;;;;;;;;6242846;22;19911;-76
2023/06/06 16:11:41;;;;;;;;;;;;;;;;;;6243127;23;20019;-76
2023/06/06 16:14:06;;;;;;;;;;;;;;;;;;6242308;23;19949;-76
2023/06/06 16:16:31;;;;;;;;;;;;;;;;;;6242645;23;19904;-79
2023/06/06 16:18:56;;;;;;;7.70;2.40;;;;;;;;;;6241163;22;20371;-80
2023/06/06 16:21:22;;;;;;;5.90;2.35;;;;;;;;;;6240874;23;20012;-80
2023/06/06 16:23:48;;;;;;;2.95;2.10;;;;;;;;;;6241152;23;20053;-80
2023/06/06 16:26:13;;;;;;;4.93;2.65;;;;;;;;;;6242222;23;20004;-80
2023/06/06 16:28:39;;;;;;;3.53;2.22;;;;;;;;;;6241155;22;20524;-79
2023/06/06 16:31:04;;;;;;;6.93;2.65;;;;;;;;;;6243395;23;19996;-82
2023/06/06 16:33:30;;;;;;;5.70;2.53;;;;;;;;;;6243965;23;20023;-80
2023/06/06 16:35:55;;;;;;;3.95;2.20;;;;;;;;;;6217692;23;20572;-83
2023/06/06 16:38:20;;;;;;;5.20;2.17;;;;;;;;;;6216071;22;20373;-81
2023/06/06 16:40:46;;;;;;;5.18;1.83;;;;;;;;;;6245276;23;20662;-82
2023/06/06 16:43:11;;;;;;;3.70;2.00;;;;;;;;;;6241339;23;20012;-87